createdAt,value
2023-05-06T00:00:37.625Z,450.00
2023-05-06T00:01:37.606Z,450.00
2023-05-06T00:02:37.810Z,447.00
2023-05-06T00:03:37.777Z,448.00
2023-05-06T00:04:37.697Z,448.00
2023-05-06T00:05:37.665Z,445.00
2023-05-06T00:06:37.622Z,447.00
2023-05-06T00:07:37.631Z,449.00
2023-05-06T00:08:37.618Z,451.00
2023-05-06T00:09:37.641Z,452.00
2023-05-06T00:10:37.660Z,452.00
2023-05-06T00:11:37.641Z,452.00
2023-05-06T00:12:37.721Z,451.00
2023-05-06T00:13:37.668Z,451.00
2023-05-06T00:14:37.690Z,451.00
2023-05-06T00:15:37.695Z,450.00
2023-05-06T00:16:37.758Z,449.00
2023-05-06T00:17:37.782Z,447.00
2023-05-06T00:18:37.747Z,445.00
2023-05-06T00:19:37.761Z,443.00
2023-05-06T00:20:37.808Z,446.00
2023-05-06T00:21:37.868Z,446.00
2023-05-06T00:22:37.851Z,446.00
2023-05-06T00:23:37.868Z,450.00
2023-05-06T00:24:37.877Z,453.00
2023-05-06T00:25:37.911Z,454.00
2023-05-06T00:26:38.130Z,454.00
2023-05-06T00:27:37.979Z,453.00
2023-05-06T00:28:37.983Z,451.00
2023-05-06T00:29:37.994Z,449.00
2023-05-06T00:30:38.017Z,449.00
2023-05-06T00:31:38.047Z,448.00
2023-05-06T00:32:38.126Z,447.00
2023-05-06T00:33:38.064Z,448.00
2023-05-06T00:34:38.104Z,446.00
2023-05-06T00:35:38.130Z,446.00
2023-05-06T00:36:38.173Z,446.00
2023-05-06T00:37:38.290Z,448.00
2023-05-06T00:38:38.239Z,451.00
2023-05-06T00:39:38.272Z,450.00
2023-05-06T00:40:38.297Z,452.00
2023-05-06T00:41:38.330Z,451.00
2023-05-06T00:42:38.410Z,450.00
2023-05-06T00:43:38.424Z,451.00
2023-05-06T00:44:38.446Z,452.00
2023-05-06T00:45:38.506Z,453.00
2023-05-06T00:46:38.536Z,452.00
2023-05-06T00:47:38.742Z,452.00
2023-05-06T00:48:38.630Z,453.00
2023-05-06T00:49:38.674Z,454.00
2023-05-06T00:50:38.702Z,454.00
2023-05-06T00:51:38.754Z,459.00
2023-05-06T00:52:38.803Z,459.00
2023-05-06T00:53:38.845Z,459.00
2023-05-06T00:54:38.873Z,458.00
2023-05-06T00:55:38.911Z,460.00
2023-05-06T00:56:38.973Z,463.00
2023-05-06T00:57:39.015Z,461.00
2023-05-06T00:58:39.084Z,459.00
2023-05-06T00:59:39.132Z,460.00
2023-05-06T01:00:39.166Z,459.00
2023-05-06T01:01:39.259Z,459.00
2023-05-06T01:02:47.169Z,459.00
2023-05-06T01:03:40.364Z,458.00
2023-05-06T01:04:39.312Z,458.00
2023-05-06T01:05:39.261Z,459.00
2023-05-06T01:06:39.265Z,455.00
2023-05-06T01:07:39.250Z,452.00
2023-05-06T01:08:39.232Z,451.00
2023-05-06T01:09:39.318Z,450.00
2023-05-06T01:10:39.230Z,452.00
2023-05-06T01:11:39.224Z,450.00
2023-05-06T01:12:39.258Z,450.00
2023-05-06T01:13:39.306Z,453.00
2023-05-06T01:14:39.330Z,452.00
2023-05-06T01:15:39.405Z,451.00
2023-05-06T01:16:39.500Z,451.00
2023-05-06T01:17:39.532Z,448.00
2023-05-06T01:18:39.553Z,446.00
2023-05-06T01:19:39.611Z,445.00
2023-05-06T01:20:39.645Z,445.00
2023-05-06T01:21:39.689Z,445.00
2023-05-06T01:22:39.752Z,445.00
2023-05-06T01:23:39.798Z,443.00
2023-05-06T01:24:39.856Z,445.00
2023-05-06T01:25:39.966Z,446.00
2023-05-06T01:26:39.952Z,447.00
2023-05-06T01:27:40.003Z,448.00
2023-05-06T01:28:40.047Z,447.00
2023-05-06T01:29:40.046Z,445.00
2023-05-06T01:30:40.077Z,444.00
2023-05-06T01:31:40.248Z,443.00
2023-05-06T01:32:40.265Z,443.00
2023-05-06T01:33:40.185Z,443.00
2023-05-06T01:34:40.240Z,443.00
2023-05-06T01:35:40.303Z,441.00
2023-05-06T01:36:40.351Z,440.00
2023-05-06T01:37:40.396Z,443.00
2023-05-06T01:38:40.448Z,443.00
2023-05-06T01:39:40.494Z,442.00
2023-05-06T01:40:40.553Z,441.00
2023-05-06T01:41:40.541Z,441.00
2023-05-06T01:42:40.529Z,441.00
2023-05-06T01:43:40.513Z,442.00
2023-05-06T01:44:40.509Z,444.00
2023-05-06T01:45:40.502Z,444.00
2023-05-06T01:46:40.609Z,444.00
2023-05-06T01:47:40.530Z,443.00
2023-05-06T01:48:40.530Z,444.00
2023-05-06T01:49:40.540Z,448.00
2023-05-06T01:50:40.545Z,450.00
2023-05-06T01:51:40.556Z,454.00
2023-05-06T01:52:40.570Z,456.00
2023-05-06T01:53:40.594Z,455.00
2023-05-06T01:54:40.668Z,452.00
2023-05-06T01:55:40.696Z,448.00
2023-05-06T01:56:40.755Z,445.00
2023-05-06T01:57:40.870Z,442.00
2023-05-06T01:58:40.833Z,441.00
2023-05-06T01:59:40.945Z,438.00
2023-05-06T02:00:41.021Z,436.00
2023-05-06T02:01:41.183Z,436.00
2023-05-06T02:02:41.168Z,437.00
2023-05-06T02:03:41.186Z,436.00
2023-05-06T02:04:41.122Z,437.00
2023-05-06T02:05:41.159Z,438.00
2023-05-06T02:06:41.176Z,436.00
2023-05-06T02:07:41.172Z,439.00
2023-05-06T02:08:41.170Z,441.00
2023-05-06T02:09:41.177Z,445.00
2023-05-06T02:10:41.209Z,448.00
2023-05-06T02:11:41.223Z,451.00
2023-05-06T02:12:41.295Z,450.00
2023-05-06T02:13:41.381Z,450.00
2023-05-06T02:14:41.256Z,452.00
2023-05-06T02:15:41.296Z,454.00
2023-05-06T02:16:41.378Z,455.00
2023-05-06T02:17:41.372Z,454.00
2023-05-06T02:18:41.356Z,455.00
2023-05-06T02:19:41.357Z,456.00
2023-05-06T02:20:41.370Z,455.00
2023-05-06T02:21:41.381Z,452.00
2023-05-06T02:22:41.393Z,451.00
2023-05-06T02:23:41.406Z,450.00
2023-05-06T02:24:41.426Z,449.00
2023-05-06T02:25:41.420Z,449.00
2023-05-06T02:26:41.438Z,450.00
2023-05-06T02:27:41.435Z,450.00
2023-05-06T02:28:41.444Z,449.00
2023-05-06T02:29:41.475Z,448.00
2023-05-06T02:30:41.495Z,447.00
2023-05-06T02:31:41.549Z,444.00
2023-05-06T02:32:41.534Z,445.00
2023-05-06T02:33:41.506Z,445.00
2023-05-06T02:34:41.544Z,446.00
2023-05-06T02:35:41.567Z,444.00
2023-05-06T02:36:41.575Z,445.00
2023-05-06T02:37:41.576Z,443.00
2023-05-06T02:38:41.593Z,441.00
2023-05-06T02:39:41.605Z,439.00
2023-05-06T02:40:41.624Z,439.00
2023-05-06T02:41:41.640Z,439.00
2023-05-06T02:42:41.748Z,440.00
2023-05-06T02:43:41.673Z,439.00
2023-05-06T02:44:41.718Z,439.00
2023-05-06T02:45:41.776Z,439.00
2023-05-06T02:46:41.711Z,441.00
2023-05-06T02:47:41.760Z,445.00
2023-05-06T02:48:41.737Z,446.00
2023-05-06T02:49:41.744Z,447.00
2023-05-06T02:50:41.759Z,447.00
2023-05-06T02:51:41.801Z,449.00
2023-05-06T02:52:41.814Z,450.00
2023-05-06T02:53:41.856Z,449.00
2023-05-06T02:54:41.850Z,451.00
2023-05-06T02:55:41.864Z,452.00
2023-05-06T02:56:41.865Z,450.00
2023-05-06T02:57:41.898Z,451.00
2023-05-06T02:58:41.904Z,451.00
2023-05-06T02:59:41.947Z,452.00
2023-05-06T03:00:41.953Z,449.00
2023-05-06T03:01:42.032Z,449.00
2023-05-06T03:02:41.984Z,448.00
2023-05-06T03:03:41.971Z,445.00
2023-05-06T03:04:42.094Z,445.00
2023-05-06T03:05:42.007Z,445.00
2023-05-06T03:06:42.011Z,447.00
2023-05-06T03:07:42.043Z,446.00
2023-05-06T03:08:42.073Z,447.00
2023-05-06T03:09:42.065Z,448.00
2023-05-06T03:10:42.082Z,448.00
2023-05-06T03:11:42.103Z,447.00
2023-05-06T03:12:42.165Z,448.00
2023-05-06T03:13:42.228Z,452.00
2023-05-06T03:14:42.172Z,451.00
2023-05-06T03:15:42.174Z,454.00
2023-05-06T03:16:42.268Z,453.00
2023-05-06T03:17:42.373Z,449.00
2023-05-06T03:18:42.238Z,447.00
2023-05-06T03:19:42.262Z,449.00
2023-05-06T03:20:42.269Z,451.00
2023-05-06T03:21:42.330Z,452.00
2023-05-06T03:22:42.381Z,450.00
2023-05-06T03:23:42.315Z,452.00
2023-05-06T03:24:42.345Z,453.00
2023-05-06T03:25:42.344Z,453.00
2023-05-06T03:26:42.385Z,453.00
2023-05-06T03:27:42.389Z,453.00
2023-05-06T03:28:42.376Z,453.00
2023-05-06T03:29:42.428Z,452.00
2023-05-06T03:30:42.482Z,451.00
2023-05-06T03:31:42.551Z,451.00
2023-05-06T03:32:42.531Z,454.00
2023-05-06T03:33:42.528Z,457.00
2023-05-06T03:34:42.540Z,460.00
2023-05-06T03:35:42.553Z,465.00
2023-05-06T03:36:42.552Z,469.00
2023-05-06T03:37:42.547Z,466.00
2023-05-06T03:38:42.564Z,464.00
2023-05-06T03:39:42.597Z,461.00
2023-05-06T03:40:42.610Z,459.00
2023-05-06T03:41:42.610Z,456.00
2023-05-06T03:42:42.626Z,458.00
2023-05-06T03:43:42.694Z,458.00
2023-05-06T03:44:42.718Z,462.00
2023-05-06T03:45:42.743Z,465.00
2023-05-06T03:46:42.786Z,463.00
2023-05-06T03:47:42.823Z,463.00
2023-05-06T03:48:42.785Z,463.00
2023-05-06T03:49:42.764Z,465.00
2023-05-06T03:50:42.841Z,466.00
2023-05-06T03:51:42.792Z,469.00
2023-05-06T03:52:42.793Z,470.00
2023-05-06T03:53:42.809Z,470.00
2023-05-06T03:54:42.807Z,471.00
2023-05-06T03:55:42.816Z,471.00
2023-05-06T03:56:42.862Z,473.00
2023-05-06T03:57:42.871Z,473.00
2023-05-06T03:58:42.895Z,476.00
2023-05-06T03:59:42.916Z,478.00
2023-05-06T04:00:42.920Z,476.00
2023-05-06T04:01:42.953Z,477.00
2023-05-06T04:02:43.059Z,475.00
2023-05-06T04:03:43.063Z,475.00
2023-05-06T04:04:42.989Z,477.00
2023-05-06T04:05:42.995Z,476.00
2023-05-06T04:06:43.012Z,476.00
2023-05-06T04:07:43.047Z,477.00
2023-05-06T04:08:43.042Z,480.00
2023-05-06T04:09:43.076Z,478.00
2023-05-06T04:10:43.064Z,476.00
2023-05-06T04:11:43.091Z,477.00
2023-05-06T04:12:43.138Z,474.00
2023-05-06T04:13:43.122Z,474.00
2023-05-06T04:14:43.135Z,474.00
2023-05-06T04:15:43.138Z,477.00
2023-05-06T04:16:43.219Z,477.00
2023-05-06T04:17:43.186Z,478.00
2023-05-06T04:18:43.202Z,477.00
2023-05-06T04:19:43.196Z,475.00
2023-05-06T04:20:43.206Z,473.00
2023-05-06T04:21:43.364Z,470.00
2023-05-06T04:22:43.238Z,470.00
2023-05-06T04:23:43.346Z,471.00
2023-05-06T04:24:43.371Z,472.00
2023-05-06T04:25:43.401Z,473.00
2023-05-06T04:26:43.385Z,472.00
2023-05-06T04:27:43.404Z,473.00
2023-05-06T04:28:43.415Z,474.00
2023-05-06T04:29:43.449Z,473.00
2023-05-06T04:30:43.456Z,473.00
2023-05-06T04:31:43.521Z,474.00
2023-05-06T04:32:43.553Z,472.00
2023-05-06T04:33:43.474Z,474.00
2023-05-06T04:34:43.512Z,473.00
2023-05-06T04:35:43.505Z,470.00
2023-05-06T04:36:43.499Z,467.00
2023-05-06T04:37:43.686Z,466.00
2023-05-06T04:38:43.542Z,464.00
2023-05-06T04:39:43.533Z,462.00
2023-05-06T04:40:43.621Z,460.00
2023-05-06T04:41:43.601Z,460.00
2023-05-06T04:42:43.597Z,462.00
2023-05-06T04:43:43.603Z,462.00
2023-05-06T04:44:43.645Z,459.00
2023-05-06T04:45:43.702Z,460.00
2023-05-06T04:46:43.630Z,464.00
2023-05-06T04:47:43.670Z,465.00
2023-05-06T04:48:43.647Z,464.00
2023-05-06T04:49:43.709Z,464.00
2023-05-06T04:50:43.709Z,464.00
2023-05-06T04:51:43.687Z,463.00
2023-05-06T04:52:43.689Z,463.00
2023-05-06T04:53:43.798Z,462.00
2023-05-06T04:54:45.571Z,461.00
2023-05-06T04:55:43.706Z,461.00
2023-05-06T04:56:43.678Z,460.00
2023-05-06T04:57:43.698Z,462.00
2023-05-06T04:58:43.740Z,461.00
2023-05-06T04:59:43.754Z,462.00
2023-05-06T05:00:43.752Z,462.00
2023-05-06T05:01:43.928Z,460.00
2023-05-06T05:02:43.878Z,455.00
2023-05-06T05:03:43.856Z,456.00
2023-05-06T05:04:43.918Z,454.00
2023-05-06T05:05:43.950Z,455.00
2023-05-06T05:06:43.936Z,455.00
2023-05-06T05:07:43.949Z,455.00
2023-05-06T05:08:43.925Z,454.00
2023-05-06T05:09:44.077Z,449.00
2023-05-06T05:10:43.953Z,452.00
2023-05-06T05:11:43.933Z,454.00
2023-05-06T05:12:43.972Z,452.00
2023-05-06T05:13:43.931Z,451.00
2023-05-06T05:14:43.934Z,451.00
2023-05-06T05:15:44.000Z,448.00
2023-05-06T05:16:44.092Z,448.00
2023-05-06T05:17:44.160Z,446.00
2023-05-06T05:18:44.236Z,447.00
2023-05-06T05:19:44.288Z,449.00
2023-05-06T05:20:44.304Z,449.00
2023-05-06T05:21:44.341Z,449.00
2023-05-06T05:22:44.384Z,450.00
2023-05-06T05:23:44.409Z,448.00
2023-05-06T05:24:44.477Z,445.00
2023-05-06T05:25:44.586Z,446.00
2023-05-06T05:26:44.575Z,445.00
2023-05-06T05:27:44.625Z,446.00
2023-05-06T05:28:44.636Z,446.00
2023-05-06T05:29:44.659Z,449.00
2023-05-06T05:30:44.698Z,455.00
2023-05-06T05:31:44.873Z,457.00
2023-05-06T05:32:44.882Z,459.00
2023-05-06T05:33:44.935Z,461.00
2023-05-06T05:34:44.929Z,464.00
2023-05-06T05:35:45.001Z,466.00
2023-05-06T05:36:45.049Z,468.00
2023-05-06T05:37:45.105Z,469.00
2023-05-06T05:38:45.235Z,472.00
2023-05-06T05:39:45.207Z,471.00
2023-05-06T05:40:45.237Z,469.00
2023-05-06T05:41:45.297Z,468.00
2023-05-06T05:42:45.341Z,468.00
2023-05-06T05:43:45.368Z,469.00
2023-05-06T05:44:45.365Z,470.00
2023-05-06T05:45:45.400Z,469.00
2023-05-06T05:46:45.467Z,469.00
2023-05-06T05:47:45.501Z,470.00
2023-05-06T05:48:45.524Z,470.00
2023-05-06T05:49:45.573Z,469.00
2023-05-06T05:50:45.641Z,471.00
2023-05-06T05:51:45.697Z,470.00
2023-05-06T05:52:45.765Z,466.00
2023-05-06T05:53:45.833Z,466.00
2023-05-06T05:54:45.898Z,463.00
2023-05-06T05:55:45.923Z,462.00
2023-05-06T05:56:45.997Z,461.00
2023-05-06T05:57:46.144Z,462.00
2023-05-06T05:58:46.108Z,460.00
2023-05-06T05:59:46.186Z,459.00
2023-05-06T06:00:46.243Z,457.00
2023-05-06T06:01:46.288Z,457.00
2023-05-06T06:02:46.409Z,460.00
2023-05-06T06:03:46.564Z,462.00
2023-05-06T06:04:46.509Z,463.00
2023-05-06T06:05:46.539Z,463.00
2023-05-06T06:06:46.584Z,465.00
2023-05-06T06:07:46.648Z,463.00
2023-05-06T06:08:46.694Z,463.00
2023-05-06T06:09:46.781Z,463.00
2023-05-06T06:10:46.817Z,463.00
2023-05-06T06:11:46.884Z,462.00
2023-05-06T06:12:46.948Z,463.00
2023-05-06T06:13:46.980Z,463.00
2023-05-06T06:14:47.026Z,462.00
2023-05-06T06:15:47.102Z,462.00
2023-05-06T06:16:47.149Z,460.00
2023-05-06T06:17:47.229Z,457.00
2023-05-06T06:18:47.229Z,453.00
2023-05-06T06:19:47.297Z,455.00
2023-05-06T06:20:47.319Z,454.00
2023-05-06T06:21:47.384Z,453.00
2023-05-06T06:22:47.408Z,455.00
2023-05-06T06:23:47.473Z,455.00
2023-05-06T06:24:47.535Z,455.00
2023-05-06T06:25:47.595Z,456.00
2023-05-06T06:26:47.654Z,458.00
2023-05-06T06:27:47.688Z,458.00
2023-05-06T06:28:47.737Z,457.00
2023-05-06T06:29:47.836Z,456.00
2023-05-06T06:30:47.824Z,455.00
2023-05-06T06:31:47.914Z,452.00
2023-05-06T06:32:47.932Z,452.00
2023-05-06T06:33:47.962Z,452.00
2023-05-06T06:34:48.005Z,449.00
2023-05-06T06:35:48.025Z,450.00
2023-05-06T06:36:48.063Z,451.00
2023-05-06T06:37:48.097Z,448.00
2023-05-06T06:38:48.131Z,449.00
2023-05-06T06:39:48.177Z,450.00
2023-05-06T06:40:48.199Z,450.00
2023-05-06T06:41:48.226Z,449.00
2023-05-06T06:42:48.273Z,449.00
2023-05-06T06:43:48.285Z,447.00
2023-05-06T06:44:48.297Z,449.00
2023-05-06T06:45:48.491Z,449.00
2023-05-06T06:46:48.327Z,450.00
2023-05-06T06:47:48.390Z,450.00
2023-05-06T06:48:48.362Z,450.00
2023-05-06T06:49:48.374Z,452.00
2023-05-06T06:50:48.386Z,453.00
2023-05-06T06:51:48.394Z,453.00
2023-05-06T06:52:48.378Z,455.00
2023-05-06T06:53:48.390Z,457.00
2023-05-06T06:54:48.399Z,456.00
2023-05-06T06:55:48.371Z,455.00
2023-05-06T06:56:48.408Z,452.00
2023-05-06T06:57:48.396Z,451.00
2023-05-06T06:58:48.414Z,449.00
2023-05-06T06:59:48.459Z,449.00
2023-05-06T07:00:48.545Z,449.00
2023-05-06T07:01:48.573Z,450.00
2023-05-06T07:02:48.579Z,449.00
2023-05-06T07:03:48.643Z,449.00
2023-05-06T07:04:48.630Z,448.00
2023-05-06T07:05:48.654Z,446.00
2023-05-06T07:06:48.686Z,446.00
2023-05-06T07:07:48.730Z,446.00
2023-05-06T07:08:48.785Z,445.00
2023-05-06T07:09:48.822Z,446.00
2023-05-06T07:10:48.878Z,447.00
2023-05-06T07:11:48.935Z,446.00
2023-05-06T07:12:49.015Z,447.00
2023-05-06T07:13:49.008Z,448.00
2023-05-06T07:14:49.032Z,449.00
2023-05-06T07:15:49.101Z,448.00
2023-05-06T07:16:51.365Z,447.00
2023-05-06T07:17:49.290Z,448.00
2023-05-06T07:18:49.274Z,448.00
2023-05-06T07:19:49.321Z,449.00
2023-05-06T07:20:49.385Z,450.00
2023-05-06T07:21:49.394Z,449.00
2023-05-06T07:22:49.451Z,450.00
2023-05-06T07:23:49.475Z,451.00
2023-05-06T07:24:49.529Z,448.00
2023-05-06T07:25:49.553Z,447.00
2023-05-06T07:26:49.585Z,446.00
2023-05-06T07:27:49.627Z,447.00
2023-05-06T07:28:49.652Z,446.00
2023-05-06T07:29:49.650Z,444.00
2023-05-06T07:30:49.709Z,443.00
2023-05-06T07:31:49.706Z,440.00
2023-05-06T07:32:49.750Z,441.00
2023-05-06T07:33:49.787Z,440.00
2023-05-06T07:34:49.755Z,440.00
2023-05-06T07:35:49.753Z,440.00
2023-05-06T07:36:49.764Z,441.00
2023-05-06T07:37:49.804Z,443.00
2023-05-06T07:38:49.809Z,444.00
2023-05-06T07:39:49.804Z,444.00
2023-05-06T07:40:49.821Z,445.00
2023-05-06T07:41:49.807Z,444.00
2023-05-06T07:42:49.889Z,444.00
2023-05-06T07:43:49.841Z,442.00
2023-05-06T07:44:49.849Z,444.00
2023-05-06T07:45:49.927Z,443.00
2023-05-06T07:46:49.988Z,443.00
2023-05-06T07:47:49.973Z,444.00
2023-05-06T07:48:49.890Z,446.00
2023-05-06T07:49:49.936Z,446.00
2023-05-06T07:50:49.911Z,444.00
2023-05-06T07:51:49.910Z,444.00
2023-05-06T07:52:49.908Z,446.00
2023-05-06T07:53:49.938Z,446.00
2023-05-06T07:54:49.923Z,447.00
2023-05-06T07:55:49.944Z,448.00
2023-05-06T07:56:49.948Z,444.00
2023-05-06T07:57:49.965Z,444.00
2023-05-06T07:58:49.955Z,441.00
2023-05-06T07:59:49.986Z,440.00
2023-05-06T08:00:50.005Z,443.00
2023-05-06T08:01:49.998Z,440.00
2023-05-06T08:02:50.233Z,440.00
2023-05-06T08:03:50.160Z,440.00
2023-05-06T08:04:51.649Z,443.00
2023-05-06T08:05:50.022Z,444.00
2023-05-06T08:06:50.013Z,444.00
2023-05-06T08:07:50.017Z,443.00
2023-05-06T08:08:50.036Z,443.00
2023-05-06T08:09:50.029Z,444.00
2023-05-06T08:10:50.056Z,443.00
2023-05-06T08:11:50.054Z,445.00
2023-05-06T08:12:50.088Z,444.00
2023-05-06T08:13:50.069Z,442.00
2023-05-06T08:14:50.054Z,440.00
2023-05-06T08:15:50.081Z,438.00
2023-05-06T08:16:50.116Z,439.00
2023-05-06T08:17:50.118Z,441.00
2023-05-06T08:18:50.081Z,441.00
2023-05-06T08:19:50.088Z,443.00
2023-05-06T08:20:50.093Z,447.00
2023-05-06T08:21:50.148Z,447.00
2023-05-06T08:22:50.105Z,446.00
2023-05-06T08:23:50.099Z,445.00
2023-05-06T08:24:50.128Z,446.00
2023-05-06T08:25:50.117Z,447.00
2023-05-06T08:26:50.142Z,446.00
2023-05-06T08:27:50.132Z,444.00
2023-05-06T08:28:50.133Z,443.00
2023-05-06T08:29:50.148Z,443.00
2023-05-06T08:30:50.154Z,442.00
2023-05-06T08:31:50.222Z,443.00
2023-05-06T08:32:50.221Z,443.00
2023-05-06T08:33:51.099Z,442.00
2023-05-06T08:34:50.190Z,443.00
2023-05-06T08:35:50.233Z,444.00
2023-05-06T08:36:50.191Z,443.00
2023-05-06T08:37:50.256Z,444.00
2023-05-06T08:38:50.214Z,444.00
2023-05-06T08:39:50.232Z,444.00
2023-05-06T08:40:50.212Z,442.00
2023-05-06T08:41:50.262Z,444.00
2023-05-06T08:42:50.299Z,445.00
2023-05-06T08:43:50.346Z,444.00
2023-05-06T08:44:50.373Z,444.00
2023-05-06T08:45:50.446Z,445.00
2023-05-06T08:46:50.497Z,445.00
2023-05-06T08:47:50.490Z,444.00
2023-05-06T08:48:50.471Z,444.00
2023-05-06T08:49:50.485Z,443.00
2023-05-06T08:50:50.524Z,444.00
2023-05-06T08:51:50.581Z,445.00
2023-05-06T08:52:50.597Z,445.00
2023-05-06T08:53:50.631Z,444.00
2023-05-06T08:54:50.666Z,443.00
2023-05-06T08:55:50.715Z,441.00
2023-05-06T08:56:50.791Z,439.00
2023-05-06T08:57:50.842Z,441.00
2023-05-06T08:58:50.905Z,440.00
2023-05-06T08:59:50.945Z,441.00
2023-05-06T09:00:50.998Z,430.00
2023-05-06T09:01:50.987Z,442.00
2023-05-06T09:02:51.083Z,446.00
2023-05-06T09:03:51.004Z,444.00
2023-05-06T09:04:51.018Z,443.00
2023-05-06T09:05:51.003Z,444.00
2023-05-06T09:06:51.026Z,442.00
2023-05-06T09:07:51.066Z,443.00
2023-05-06T09:08:51.010Z,425.00
2023-05-06T09:09:51.049Z,434.00
2023-05-06T09:10:51.026Z,437.00
2023-05-06T09:11:51.046Z,440.00
2023-05-06T09:12:51.110Z,440.00
2023-05-06T09:13:51.120Z,442.00
2023-05-06T09:14:51.187Z,441.00
2023-05-06T09:15:51.243Z,440.00
2023-05-06T09:16:51.313Z,441.00
2023-05-06T09:17:51.415Z,440.00
2023-05-06T09:18:51.305Z,442.00
2023-05-06T09:19:51.321Z,440.00
2023-05-06T09:20:51.293Z,441.00
2023-05-06T09:21:51.380Z,441.00
2023-05-06T09:22:51.295Z,441.00
2023-05-06T09:23:51.306Z,443.00
2023-05-06T09:24:51.290Z,439.00
2023-05-06T09:25:51.358Z,439.00
2023-05-06T09:26:51.283Z,440.00
2023-05-06T09:27:51.318Z,429.00
2023-05-06T09:28:51.354Z,435.00
2023-05-06T09:29:51.396Z,437.00
2023-05-06T09:30:51.414Z,437.00
2023-05-06T09:31:51.394Z,438.00
2023-05-06T09:32:51.426Z,437.00
2023-05-06T09:33:51.427Z,437.00
2023-05-06T09:34:51.485Z,434.00
2023-05-06T09:35:51.481Z,435.00
2023-05-06T09:36:51.471Z,435.00
2023-05-06T09:37:51.495Z,436.00
2023-05-06T09:38:51.542Z,437.00
2023-05-06T09:39:51.570Z,440.00
2023-05-06T09:40:51.630Z,441.00
2023-05-06T09:41:51.736Z,441.00
2023-05-06T09:42:51.753Z,439.00
2023-05-06T09:43:51.799Z,441.00
2023-05-06T09:44:51.842Z,444.00
2023-05-06T09:45:51.911Z,444.00
2023-05-06T09:46:51.971Z,442.00
2023-05-06T09:47:52.015Z,442.00
2023-05-06T09:48:52.033Z,441.00
2023-05-06T09:49:52.087Z,442.00
2023-05-06T09:50:52.137Z,441.00
2023-05-06T09:51:52.182Z,440.00
2023-05-06T09:52:52.242Z,440.00
2023-05-06T09:53:52.279Z,438.00
2023-05-06T09:54:52.318Z,440.00
2023-05-06T09:55:52.384Z,439.00
2023-05-06T09:56:52.388Z,441.00
2023-05-06T09:57:52.532Z,442.00
2023-05-06T09:58:52.459Z,443.00
2023-05-06T09:59:52.485Z,444.00
2023-05-06T10:00:52.514Z,444.00
2023-05-06T10:01:52.567Z,444.00
2023-05-06T10:02:52.652Z,444.00
2023-05-06T10:03:52.591Z,441.00
2023-05-06T10:04:52.777Z,440.00
2023-05-06T10:05:52.708Z,438.00
2023-05-06T10:06:52.797Z,438.00
2023-05-06T10:07:52.888Z,438.00
2023-05-06T10:08:52.897Z,439.00
2023-05-06T10:09:52.903Z,438.00
2023-05-06T10:10:52.969Z,439.00
2023-05-06T10:11:53.021Z,440.00
2023-05-06T10:12:53.124Z,438.00
2023-05-06T10:13:53.177Z,435.00
2023-05-06T10:14:53.162Z,438.00
2023-05-06T10:15:53.287Z,439.00
2023-05-06T10:16:53.246Z,440.00
2023-05-06T10:17:53.302Z,442.00
2023-05-06T10:18:53.305Z,443.00
2023-05-06T10:19:53.334Z,444.00
2023-05-06T10:20:53.415Z,443.00
2023-05-06T10:21:53.431Z,444.00
2023-05-06T10:22:53.484Z,447.00
2023-05-06T10:23:53.522Z,445.00
2023-05-06T10:24:53.543Z,446.00
2023-05-06T10:25:53.601Z,442.00
2023-05-06T10:26:53.628Z,444.00
2023-05-06T10:27:53.643Z,443.00
2023-05-06T10:28:53.693Z,434.00
2023-05-06T10:29:53.758Z,450.00
2023-05-06T10:30:53.760Z,450.00
2023-05-06T10:31:53.836Z,451.00
2023-05-06T10:32:53.871Z,444.00
2023-05-06T10:33:53.814Z,443.00
2023-05-06T10:34:53.861Z,443.00
2023-05-06T10:35:53.899Z,447.00
2023-05-06T10:36:53.922Z,445.00
2023-05-06T10:37:53.957Z,444.00
2023-05-06T10:38:54.025Z,443.00
2023-05-06T10:39:54.084Z,443.00
2023-05-06T10:40:54.157Z,445.00
2023-05-06T10:41:54.166Z,447.00
2023-05-06T10:42:54.194Z,449.00
2023-05-06T10:43:54.257Z,450.00
2023-05-06T10:44:54.319Z,449.00
2023-05-06T10:45:54.361Z,447.00
2023-05-06T10:46:54.356Z,448.00
2023-05-06T10:47:54.417Z,449.00
2023-05-06T10:48:54.455Z,450.00
2023-05-06T10:49:54.456Z,447.00
2023-05-06T10:50:54.470Z,448.00
2023-05-06T10:51:54.524Z,449.00
2023-05-06T10:52:54.535Z,440.00
2023-05-06T10:53:54.545Z,446.00
2023-05-06T10:54:54.537Z,448.00
2023-05-06T10:55:54.632Z,443.00
2023-05-06T10:56:54.574Z,441.00
2023-05-06T10:57:54.593Z,441.00
2023-05-06T10:58:54.637Z,443.00
2023-05-06T10:59:54.650Z,446.00
2023-05-06T11:00:54.701Z,447.00
2023-05-06T11:01:54.725Z,447.00
2023-05-06T11:02:54.834Z,448.00
2023-05-06T11:03:54.809Z,446.00
2023-05-06T11:04:54.812Z,446.00
2023-05-06T11:05:54.865Z,446.00
2023-05-06T11:06:54.860Z,447.00
2023-05-06T11:07:54.882Z,449.00
2023-05-06T11:08:54.896Z,449.00
2023-05-06T11:09:54.912Z,448.00
2023-05-06T11:10:54.958Z,447.00
2023-05-06T11:11:54.930Z,450.00
2023-05-06T11:12:54.970Z,451.00
2023-05-06T11:13:54.965Z,450.00
2023-05-06T11:14:54.984Z,449.00
2023-05-06T11:15:55.011Z,448.00
2023-05-06T11:16:55.038Z,451.00
2023-05-06T11:17:55.002Z,450.00
2023-05-06T11:18:55.007Z,450.00
2023-05-06T11:19:55.029Z,451.00
2023-05-06T11:20:55.063Z,450.00
2023-05-06T11:21:55.031Z,450.00
2023-05-06T11:22:55.051Z,450.00
2023-05-06T11:23:55.054Z,450.00
2023-05-06T11:24:55.050Z,451.00
2023-05-06T11:25:55.138Z,450.00
2023-05-06T11:26:55.114Z,449.00
2023-05-06T11:27:55.171Z,452.00
2023-05-06T11:28:55.226Z,452.00
2023-05-06T11:29:55.320Z,452.00
2023-05-06T11:30:55.378Z,451.00
2023-05-06T11:31:55.421Z,452.00
2023-05-06T11:32:55.489Z,452.00
2023-05-06T11:33:55.531Z,452.00
2023-05-06T11:34:55.512Z,450.00
2023-05-06T11:35:55.612Z,450.00
2023-05-06T11:36:55.628Z,451.00
2023-05-06T11:37:55.715Z,451.00
2023-05-06T11:38:55.764Z,452.00
2023-05-06T11:39:55.818Z,453.00
2023-05-06T11:40:55.894Z,455.00
2023-05-06T11:41:55.932Z,456.00
2023-05-06T11:42:55.981Z,457.00
2023-05-06T11:43:56.041Z,456.00
2023-05-06T11:44:56.099Z,454.00
2023-05-06T11:45:56.217Z,454.00
2023-05-06T11:46:56.229Z,454.00
2023-05-06T11:47:56.319Z,452.00
2023-05-06T11:48:56.318Z,451.00
2023-05-06T11:49:56.438Z,447.00
2023-05-06T11:50:56.407Z,445.00
2023-05-06T11:51:56.491Z,429.00
2023-05-06T11:52:56.509Z,447.00
2023-05-06T11:53:56.568Z,451.00
2023-05-06T11:54:56.601Z,450.00
2023-05-06T11:55:56.667Z,444.00
2023-05-06T11:56:56.728Z,443.00
2023-05-06T11:57:56.741Z,444.00
2023-05-06T11:58:56.801Z,444.00
2023-05-06T11:59:56.839Z,444.00
2023-05-06T12:00:56.904Z,444.00
2023-05-06T12:01:56.918Z,446.00
2023-05-06T12:02:57.087Z,448.00
2023-05-06T12:03:57.188Z,449.00
2023-05-06T12:04:57.052Z,449.00
2023-05-06T12:05:57.043Z,447.00
2023-05-06T12:06:57.087Z,447.00
2023-05-06T12:07:57.095Z,449.00
2023-05-06T12:08:57.124Z,449.00
2023-05-06T12:09:57.111Z,451.00
2023-05-06T12:10:57.122Z,451.00
2023-05-06T12:11:57.127Z,453.00
2023-05-06T12:12:57.177Z,458.00
2023-05-06T12:13:57.157Z,439.00
2023-05-06T12:14:57.138Z,446.00
2023-05-06T12:15:57.184Z,450.00
2023-05-06T12:16:57.137Z,452.00
2023-05-06T12:17:57.197Z,455.00
2023-05-06T12:18:57.172Z,451.00
2023-05-06T12:19:57.153Z,454.00
2023-05-06T12:20:57.124Z,458.00
2023-05-06T12:21:57.227Z,458.00
2023-05-06T12:22:57.148Z,456.00
2023-05-06T12:23:57.279Z,455.00
2023-05-06T12:24:57.251Z,452.00
2023-05-06T12:25:57.300Z,451.00
2023-05-06T12:26:57.362Z,452.00
2023-05-06T12:27:58.020Z,449.00
2023-05-06T12:28:57.452Z,447.00